sensor_id;sensor_type;location;lat;lon;timestamp;temperature;humidity
19755;DHT22;10036;47.812;9.274;2023-07-22T00:00:35;15.40;99.90
19755;DHT22;10036;47.812;9.274;2023-07-22T00:03:03;15.50;99.90
19755;DHT22;10036;47.812;9.274;2023-07-22T00:05:29;15.50;99.90
19755;DHT22;10036;47.812;9.274;2023-07-22T00:07:56;15.60;99.90
19755;DHT22;10036;47.812;9.274;2023-07-22T00:10:23;15.60;99.90
19755;DHT22;10036;47.812;9.274;2023-07-22T00:12:50;15.80;99.90
19755;DHT22;10036;47.812;9.274;2023-07-22T00:15:18;15.90;99.90
19755;DHT22;10036;47.812;9.274;2023-07-22T00:17:46;15.90;99.90
19755;DHT22;10036;47.812;9.274;2023-07-22T00:20:12;15.80;99.90
19755;DHT22;10036;47.812;9.274;2023-07-22T00:22:41;15.50;99.90
19755;DHT22;10036;47.812;9.274;2023-07-22T00:25:10;15.50;99.90
19755;DHT22;10036;47.812;9.274;2023-07-22T00:27:37;15.40;99.90
19755;DHT22;10036;47.812;9.274;2023-07-22T00:30:05;15.30;99.90
19755;DHT22;10036;47.812;9.274;2023-07-22T00:32:34;15.10;99.90
19755;DHT22;10036;47.812;9.274;2023-07-22T00:35:02;15.30;99.90
19755;DHT22;10036;47.812;9.274;2023-07-22T00:37:30;15.40;99.90
19755;DHT22;10036;47.812;9.274;2023-07-22T00:39:56;15.50;99.90
19755;DHT22;10036;47.812;9.274;2023-07-22T00:42:23;15.50;99.90
19755;DHT22;10036;47.812;9.274;2023-07-22T00:44:50;15.40;99.90
19755;DHT22;10036;47.812;9.274;2023-07-22T00:47:17;15.40;99.90
19755;DHT22;10036;47.812;9.274;2023-07-22T00:49:47;15.20;99.90
19755;DHT22;10036;47.812;9.274;2023-07-22T00:52:15;15.00;99.90
19755;DHT22;10036;47.812;9.274;2023-07-22T00:54:43;14.90;99.90
19755;DHT22;10036;47.812;9.274;2023-07-22T00:57:11;15.10;99.90
19755;DHT22;10036;47.812;9.274;2023-07-22T00:59:39;15.10;99.90
19755;DHT22;10036;47.812;9.274;2023-07-22T01:02:06;15.10;99.90
19755;DHT22;10036;47.812;9.274;2023-07-22T01:04:33;15.00;99.90
19755;DHT22;10036;47.812;9.274;2023-07-22T01:07:04;15.10;99.90
19755;DHT22;10036;47.812;9.274;2023-07-22T01:09:35;15.00;99.90
19755;DHT22;10036;47.812;9.274;2023-07-22T01:12:02;15.00;99.90
19755;DHT22;10036;47.812;9.274;2023-07-22T01:14:31;15.00;99.90
19755;DHT22;10036;47.812;9.274;2023-07-22T01:16:59;15.00;99.90
19755;DHT22;10036;47.812;9.274;2023-07-22T01:19:27;15.10;99.90
19755;DHT22;10036;47.812;9.274;2023-07-22T01:21:55;14.90;99.90
19755;DHT22;10036;47.812;9.274;2023-07-22T01:24:24;14.70;99.90
19755;DHT22;10036;47.812;9.274;2023-07-22T01:26:51;14.60;99.90
19755;DHT22;10036;47.812;9.274;2023-07-22T01:29:18;14.80;99.90
19755;DHT22;10036;47.812;9.274;2023-07-22T01:31:47;14.80;99.90
19755;DHT22;10036;47.812;9.274;2023-07-22T01:34:15;14.50;99.90
19755;DHT22;10036;47.812;9.274;2023-07-22T01:36:42;14.60;99.90
19755;DHT22;10036;47.812;9.274;2023-07-22T01:39:09;14.60;99.90
19755;DHT22;10036;47.812;9.274;2023-07-22T01:41:38;14.60;99.90
19755;DHT22;10036;47.812;9.274;2023-07-22T01:44:05;14.40;99.90
19755;DHT22;10036;47.812;9.274;2023-07-22T01:46:33;14.40;99.90
19755;DHT22;10036;47.812;9.274;2023-07-22T01:49:00;14.30;99.90
19755;DHT22;10036;47.812;9.274;2023-07-22T01:51:28;14.60;99.90
19755;DHT22;10036;47.812;9.274;2023-07-22T01:53:55;14.60;99.90
19755;DHT22;10036;47.812;9.274;2023-07-22T01:56:22;14.60;99.90
19755;DHT22;10036;47.812;9.274;2023-07-22T01:58:50;14.60;99.90
19755;DHT22;10036;47.812;9.274;2023-07-22T02:01:17;14.40;99.90
19755;DHT22;10036;47.812;9.274;2023-07-22T02:03:44;14.40;99.90
19755;DHT22;10036;47.812;9.274;2023-07-22T02:06:12;14.50;99.90
19755;DHT22;10036;47.812;9.274;2023-07-22T02:08:39;14.20;99.90
19755;DHT22;10036;47.812;9.274;2023-07-22T02:11:07;14.50;99.90
19755;DHT22;10036;47.812;9.274;2023-07-22T02:13:35;14.50;99.90
19755;DHT22;10036;47.812;9.274;2023-07-22T02:16:04;14.50;99.90
19755;DHT22;10036;47.812;9.274;2023-07-22T02:18:30;14.60;99.90
19755;DHT22;10036;47.812;9.274;2023-07-22T02:20:58;14.60;99.90
19755;DHT22;10036;47.812;9.274;2023-07-22T02:23:25;14.60;99.90
19755;DHT22;10036;47.812;9.274;2023-07-22T02:25:52;14.60;99.90
19755;DHT22;10036;47.812;9.274;2023-07-22T02:28:19;14.50;99.90
19755;DHT22;10036;47.812;9.274;2023-07-22T02:30:47;14.60;99.90
19755;DHT22;10036;47.812;9.274;2023-07-22T02:33:15;14.20;99.90
19755;DHT22;10036;47.812;9.274;2023-07-22T02:35:42;13.90;99.90
19755;DHT22;10036;47.812;9.274;2023-07-22T02:38:09;13.80;99.90
19755;DHT22;10036;47.812;9.274;2023-07-22T02:40:37;13.60;99.90
19755;DHT22;10036;47.812;9.274;2023-07-22T02:43:04;13.70;99.90
19755;DHT22;10036;47.812;9.274;2023-07-22T02:45:32;13.70;99.90
19755;DHT22;10036;47.812;9.274;2023-07-22T02:47:59;13.90;99.90
19755;DHT22;10036;47.812;9.274;2023-07-22T02:50:27;13.80;99.90
19755;DHT22;10036;47.812;9.274;2023-07-22T02:52:54;14.00;99.90
19755;DHT22;10036;47.812;9.274;2023-07-22T02:55:22;14.10;99.90
19755;DHT22;10036;47.812;9.274;2023-07-22T02:57:49;14.20;99.90
19755;DHT22;10036;47.812;9.274;2023-07-22T03:00:17;14.20;99.90
19755;DHT22;10036;47.812;9.274;2023-07-22T03:02:49;14.30;99.90
19755;DHT22;10036;47.812;9.274;2023-07-22T03:05:16;14.30;99.90
19755;DHT22;10036;47.812;9.274;2023-07-22T03:07:44;14.20;99.90
19755;DHT22;10036;47.812;9.274;2023-07-22T03:10:11;14.20;99.90
19755;DHT22;10036;47.812;9.274;2023-07-22T03:12:39;14.10;99.90
19755;DHT22;10036;47.812;9.274;2023-07-22T03:15:06;13.90;99.90
19755;DHT22;10036;47.812;9.274;2023-07-22T03:17:34;13.40;99.90
19755;DHT22;10036;47.812;9.274;2023-07-22T03:20:02;13.30;99.90
19755;DHT22;10036;47.812;9.274;2023-07-22T03:22:31;13.40;99.90
19755;DHT22;10036;47.812;9.274;2023-07-22T03:24:59;13.30;99.90
19755;DHT22;10036;47.812;9.274;2023-07-22T03:27:26;13.20;99.90
19755;DHT22;10036;47.812;9.274;2023-07-22T03:29:53;13.50;99.90
19755;DHT22;10036;47.812;9.274;2023-07-22T03:32:19;13.60;99.90
19755;DHT22;10036;47.812;9.274;2023-07-22T03:34:46;13.50;99.90
19755;DHT22;10036;47.812;9.274;2023-07-22T03:37:13;13.50;99.90
19755;DHT22;10036;47.812;9.274;2023-07-22T03:39:40;13.30;99.90
19755;DHT22;10036;47.812;9.274;2023-07-22T03:42:08;13.00;99.90
19755;DHT22;10036;47.812;9.274;2023-07-22T03:44:35;13.00;99.90
19755;DHT22;10036;47.812;9.274;2023-07-22T03:47:02;13.00;99.90
19755;DHT22;10036;47.812;9.274;2023-07-22T03:49:29;13.20;99.90
19755;DHT22;10036;47.812;9.274;2023-07-22T03:51:56;13.40;99.90
19755;DHT22;10036;47.812;9.274;2023-07-22T03:54:23;13.70;99.90
19755;DHT22;10036;47.812;9.274;2023-07-22T03:56:50;13.60;99.90
19755;DHT22;10036;47.812;9.274;2023-07-22T03:59:18;13.70;99.90
19755;DHT22;10036;47.812;9.274;2023-07-22T04:01:45;13.60;99.90
19755;DHT22;10036;47.812;9.274;2023-07-22T04:04:13;13.30;99.90
19755;DHT22;10036;47.812;9.274;2023-07-22T04:06:40;13.40;99.90
19755;DHT22;10036;47.812;9.274;2023-07-22T04:09:07;13.40;99.90
19755;DHT22;10036;47.812;9.274;2023-07-22T04:11:34;13.60;99.90
19755;DHT22;10036;47.812;9.274;2023-07-22T04:14:01;13.50;99.90
19755;DHT22;10036;47.812;9.274;2023-07-22T04:16:29;13.60;99.90
19755;DHT22;10036;47.812;9.274;2023-07-22T04:18:56;13.40;99.90
19755;DHT22;10036;47.812;9.274;2023-07-22T04:21:23;13.10;99.90
19755;DHT22;10036;47.812;9.274;2023-07-22T04:23:50;13.20;99.90
19755;DHT22;10036;47.812;9.274;2023-07-22T04:26:19;13.40;99.90
19755;DHT22;10036;47.812;9.274;2023-07-22T04:28:45;13.60;99.90
19755;DHT22;10036;47.812;9.274;2023-07-22T04:31:12;13.70;99.90
19755;DHT22;10036;47.812;9.274;2023-07-22T04:33:40;13.50;99.90
19755;DHT22;10036;47.812;9.274;2023-07-22T04:36:08;13.40;99.90
19755;DHT22;10036;47.812;9.274;2023-07-22T04:38:34;13.30;99.90
19755;DHT22;10036;47.812;9.274;2023-07-22T04:41:02;13.50;99.90
19755;DHT22;10036;47.812;9.274;2023-07-22T04:43:30;13.60;99.90
19755;DHT22;10036;47.812;9.274;2023-07-22T04:45:58;13.70;99.90
19755;DHT22;10036;47.812;9.274;2023-07-22T04:48:25;13.80;99.90
19755;DHT22;10036;47.812;9.274;2023-07-22T04:50:53;13.60;99.90
19755;DHT22;10036;47.812;9.274;2023-07-22T04:53:21;13.60;99.90
19755;DHT22;10036;47.812;9.274;2023-07-22T04:55:48;13.70;99.90
19755;DHT22;10036;47.812;9.274;2023-07-22T04:58:15;13.80;99.90
19755;DHT22;10036;47.812;9.274;2023-07-22T05:00:42;13.70;99.90
19755;DHT22;10036;47.812;9.274;2023-07-22T05:03:09;13.70;99.90
19755;DHT22;10036;47.812;9.274;2023-07-22T05:05:36;13.80;99.90
19755;DHT22;10036;47.812;9.274;2023-07-22T05:08:04;13.80;99.90
19755;DHT22;10036;47.812;9.274;2023-07-22T05:10:33;13.80;99.90
19755;DHT22;10036;47.812;9.274;2023-07-22T05:12:59;13.80;99.90
19755;DHT22;10036;47.812;9.274;2023-07-22T05:15:26;13.90;99.90
19755;DHT22;10036;47.812;9.274;2023-07-22T05:17:53;14.00;99.90
19755;DHT22;10036;47.812;9.274;2023-07-22T05:20:20;13.70;99.90
19755;DHT22;10036;47.812;9.274;2023-07-22T05:22:48;13.70;99.90
19755;DHT22;10036;47.812;9.274;2023-07-22T05:25:16;13.90;99.90
19755;DHT22;10036;47.812;9.274;2023-07-22T05:27:43;13.90;99.90
19755;DHT22;10036;47.812;9.274;2023-07-22T05:30:10;14.10;99.90
19755;DHT22;10036;47.812;9.274;2023-07-22T05:32:37;14.20;99.90
19755;DHT22;10036;47.812;9.274;2023-07-22T05:35:04;14.30;99.90
19755;DHT22;10036;47.812;9.274;2023-07-22T05:37:31;14.30;99.90
19755;DHT22;10036;47.812;9.274;2023-07-22T05:39:59;14.40;99.90
19755;DHT22;10036;47.812;9.274;2023-07-22T05:42:27;14.40;99.90
19755;DHT22;10036;47.812;9.274;2023-07-22T05:44:54;14.50;99.90
19755;DHT22;10036;47.812;9.274;2023-07-22T05:47:22;14.50;99.90
19755;DHT22;10036;47.812;9.274;2023-07-22T05:49:49;14.50;99.90
19755;DHT22;10036;47.812;9.274;2023-07-22T05:52:16;14.50;99.90
19755;DHT22;10036;47.812;9.274;2023-07-22T05:54:43;14.60;99.90
19755;DHT22;10036;47.812;9.274;2023-07-22T05:57:10;14.60;99.90
19755;DHT22;10036;47.812;9.274;2023-07-22T05:59:38;14.70;99.90
19755;DHT22;10036;47.812;9.274;2023-07-22T06:02:06;14.70;99.90
19755;DHT22;10036;47.812;9.274;2023-07-22T06:04:33;14.50;99.90
19755;DHT22;10036;47.812;9.274;2023-07-22T06:07:00;14.60;99.90
19755;DHT22;10036;47.812;9.274;2023-07-22T06:09:26;14.60;99.90
19755;DHT22;10036;47.812;9.274;2023-07-22T06:11:53;14.70;99.90
19755;DHT22;10036;47.812;9.274;2023-07-22T06:14:20;14.50;99.90
19755;DHT22;10036;47.812;9.274;2023-07-22T06:16:48;14.60;99.90
19755;DHT22;10036;47.812;9.274;2023-07-22T06:19:15;14.70;99.90
19755;DHT22;10036;47.812;9.274;2023-07-22T06:21:42;14.80;99.90
19755;DHT22;10036;47.812;9.274;2023-07-22T06:24:09;14.90;99.90
19755;DHT22;10036;47.812;9.274;2023-07-22T06:26:36;15.10;99.90
19755;DHT22;10036;47.812;9.274;2023-07-22T06:29:03;15.30;99.90
19755;DHT22;10036;47.812;9.274;2023-07-22T06:31:30;15.40;99.90
19755;DHT22;10036;47.812;9.274;2023-07-22T06:33:58;15.60;99.90
19755;DHT22;10036;47.812;9.274;2023-07-22T06:36:26;15.70;99.90
19755;DHT22;10036;47.812;9.274;2023-07-22T06:38:53;15.90;99.90
19755;DHT22;10036;47.812;9.274;2023-07-22T06:41:22;16.00;99.90
19755;DHT22;10036;47.812;9.274;2023-07-22T06:43:50;16.20;99.90
19755;DHT22;10036;47.812;9.274;2023-07-22T06:46:17;16.30;99.90
19755;DHT22;10036;47.812;9.274;2023-07-22T06:48:44;16.50;99.90
19755;DHT22;10036;47.812;9.274;2023-07-22T06:51:12;16.60;99.90
19755;DHT22;10036;47.812;9.274;2023-07-22T06:53:39;16.90;99.90
19755;DHT22;10036;47.812;9.274;2023-07-22T06:56:06;16.90;99.90
19755;DHT22;10036;47.812;9.274;2023-07-22T06:58:33;16.80;99.90
19755;DHT22;10036;47.812;9.274;2023-07-22T07:01:00;16.90;99.90
19755;DHT22;10036;47.812;9.274;2023-07-22T07:03:27;17.10;99.90
19755;DHT22;10036;47.812;9.274;2023-07-22T07:05:54;17.20;99.90
19755;DHT22;10036;47.812;9.274;2023-07-22T07:08:23;17.30;99.90
19755;DHT22;10036;47.812;9.274;2023-07-22T07:10:50;17.50;99.90
19755;DHT22;10036;47.812;9.274;2023-07-22T07:13:17;17.60;99.90
19755;DHT22;10036;47.812;9.274;2023-07-22T07:15:46;17.70;99.90
19755;DHT22;10036;47.812;9.274;2023-07-22T07:18:13;17.60;99.90
19755;DHT22;10036;47.812;9.274;2023-07-22T07:20:40;17.60;99.90
19755;DHT22;10036;47.812;9.274;2023-07-22T07:23:07;17.80;99.90
19755;DHT22;10036;47.812;9.274;2023-07-22T07:25:35;18.00;99.90
19755;DHT22;10036;47.812;9.274;2023-07-22T07:28:03;18.00;99.90
19755;DHT22;10036;47.812;9.274;2023-07-22T07:30:30;18.20;99.90
19755;DHT22;10036;47.812;9.274;2023-07-22T07:32:57;18.30;99.90
19755;DHT22;10036;47.812;9.274;2023-07-22T07:35:24;18.30;99.90
19755;DHT22;10036;47.812;9.274;2023-07-22T07:37:51;18.40;99.90
19755;DHT22;10036;47.812;9.274;2023-07-22T07:40:18;18.50;99.90
19755;DHT22;10036;47.812;9.274;2023-07-22T07:42:46;18.60;99.90
19755;DHT22;10036;47.812;9.274;2023-07-22T07:45:13;18.70;99.90
19755;DHT22;10036;47.812;9.274;2023-07-22T07:47:40;18.50;99.90
19755;DHT22;10036;47.812;9.274;2023-07-22T07:50:07;18.60;99.90
19755;DHT22;10036;47.812;9.274;2023-07-22T07:52:34;18.60;99.90
19755;DHT22;10036;47.812;9.274;2023-07-22T07:55:04;18.70;99.90
19755;DHT22;10036;47.812;9.274;2023-07-22T07:57:31;18.70;99.90
19755;DHT22;10036;47.812;9.274;2023-07-22T08:00:00;18.50;99.90
19755;DHT22;10036;47.812;9.274;2023-07-22T08:02:26;18.40;99.90
19755;DHT22;10036;47.812;9.274;2023-07-22T08:04:53;18.40;99.90
19755;DHT22;10036;47.812;9.274;2023-07-22T08:07:20;18.50;99.90
19755;DHT22;10036;47.812;9.274;2023-07-22T08:09:47;18.50;99.90
19755;DHT22;10036;47.812;9.274;2023-07-22T08:12:15;18.50;99.90
19755;DHT22;10036;47.812;9.274;2023-07-22T08:14:42;18.60;99.90
19755;DHT22;10036;47.812;9.274;2023-07-22T08:17:10;18.80;99.90
19755;DHT22;10036;47.812;9.274;2023-07-22T08:19:37;19.00;99.90
19755;DHT22;10036;47.812;9.274;2023-07-22T08:22:04;19.10;99.90
19755;DHT22;10036;47.812;9.274;2023-07-22T08:24:31;19.40;99.90
19755;DHT22;10036;47.812;9.274;2023-07-22T08:26:59;19.60;99.90
19755;DHT22;10036;47.812;9.274;2023-07-22T08:29:26;19.60;99.90
19755;DHT22;10036;47.812;9.274;2023-07-22T08:31:52;19.40;99.90
19755;DHT22;10036;47.812;9.274;2023-07-22T08:34:21;19.30;99.90
19755;DHT22;10036;47.812;9.274;2023-07-22T08:36:48;19.40;99.90
19755;DHT22;10036;47.812;9.274;2023-07-22T08:39:15;19.50;99.90
19755;DHT22;10036;47.812;9.274;2023-07-22T08:41:48;19.40;99.90
19755;DHT22;10036;47.812;9.274;2023-07-22T08:44:18;19.50;99.90
19755;DHT22;10036;47.812;9.274;2023-07-22T08:46:47;19.70;99.90
19755;DHT22;10036;47.812;9.274;2023-07-22T08:49:16;19.70;99.90
19755;DHT22;10036;47.812;9.274;2023-07-22T08:51:44;19.70;99.90
19755;DHT22;10036;47.812;9.274;2023-07-22T08:54:12;19.70;99.90
19755;DHT22;10036;47.812;9.274;2023-07-22T08:56:39;19.70;99.90
19755;DHT22;10036;47.812;9.274;2023-07-22T08:59:07;19.80;99.90
19755;DHT22;10036;47.812;9.274;2023-07-22T09:01:37;19.80;99.90
19755;DHT22;10036;47.812;9.274;2023-07-22T09:04:05;19.80;99.90
19755;DHT22;10036;47.812;9.274;2023-07-22T09:06:32;19.90;99.90
19755;DHT22;10036;47.812;9.274;2023-07-22T09:09:01;20.00;99.90
19755;DHT22;10036;47.812;9.274;2023-07-22T09:11:33;20.10;99.90
19755;DHT22;10036;47.812;9.274;2023-07-22T09:14:02;20.30;99.90
19755;DHT22;10036;47.812;9.274;2023-07-22T09:16:30;20.30;99.90
19755;DHT22;10036;47.812;9.274;2023-07-22T09:18:57;20.30;99.90
19755;DHT22;10036;47.812;9.274;2023-07-22T09:21:24;20.30;99.90
19755;DHT22;10036;47.812;9.274;2023-07-22T09:23:51;20.40;99.90
19755;DHT22;10036;47.812;9.274;2023-07-22T09:26:20;20.60;99.90
19755;DHT22;10036;47.812;9.274;2023-07-22T09:28:48;20.80;99.90
19755;DHT22;10036;47.812;9.274;2023-07-22T09:31:15;20.60;99.90
19755;DHT22;10036;47.812;9.274;2023-07-22T09:33:43;20.80;99.90
19755;DHT22;10036;47.812;9.274;2023-07-22T09:36:10;20.90;99.90
19755;DHT22;10036;47.812;9.274;2023-07-22T09:38:37;20.90;99.90
19755;DHT22;10036;47.812;9.274;2023-07-22T09:41:04;20.70;99.90
19755;DHT22;10036;47.812;9.274;2023-07-22T09:43:36;20.60;99.90
19755;DHT22;10036;47.812;9.274;2023-07-22T09:46:08;20.50;99.90
19755;DHT22;10036;47.812;9.274;2023-07-22T09:48:42;20.60;99.90
19755;DHT22;10036;47.812;9.274;2023-07-22T09:51:14;20.70;99.90
19755;DHT22;10036;47.812;9.274;2023-07-22T09:53:45;20.60;99.90
19755;DHT22;10036;47.812;9.274;2023-07-22T09:56:12;20.70;99.90
19755;DHT22;10036;47.812;9.274;2023-07-22T09:58:44;20.80;99.90
19755;DHT22;10036;47.812;9.274;2023-07-22T10:01:13;20.80;99.90
19755;DHT22;10036;47.812;9.274;2023-07-22T10:03:43;20.90;99.90
19755;DHT22;10036;47.812;9.274;2023-07-22T10:06:12;21.10;99.90
19755;DHT22;10036;47.812;9.274;2023-07-22T10:08:44;21.30;99.90
19755;DHT22;10036;47.812;9.274;2023-07-22T10:11:11;21.40;99.90
19755;DHT22;10036;47.812;9.274;2023-07-22T10:13:41;21.20;99.90
19755;DHT22;10036;47.812;9.274;2023-07-22T10:16:08;21.20;99.90
19755;DHT22;10036;47.812;9.274;2023-07-22T10:18:35;21.30;99.90
19755;DHT22;10036;47.812;9.274;2023-07-22T10:21:04;21.20;99.90
19755;DHT22;10036;47.812;9.274;2023-07-22T10:23:31;21.30;99.90
19755;DHT22;10036;47.812;9.274;2023-07-22T10:25:59;21.30;99.90
19755;DHT22;10036;47.812;9.274;2023-07-22T10:28:26;21.40;99.90
19755;DHT22;10036;47.812;9.274;2023-07-22T10:30:56;21.50;99.90
19755;DHT22;10036;47.812;9.274;2023-07-22T10:33:24;21.50;99.90
19755;DHT22;10036;47.812;9.274;2023-07-22T10:36:05;22.00;99.90
19755;DHT22;10036;47.812;9.274;2023-07-22T10:38:32;22.00;99.90
19755;DHT22;10036;47.812;9.274;2023-07-22T10:40:59;22.10;99.90
19755;DHT22;10036;47.812;9.274;2023-07-22T10:43:32;22.20;99.90
19755;DHT22;10036;47.812;9.274;2023-07-22T10:46:07;22.60;99.90
19755;DHT22;10036;47.812;9.274;2023-07-22T10:48:36;22.80;99.90
19755;DHT22;10036;47.812;9.274;2023-07-22T10:51:07;22.70;99.90
19755;DHT22;10036;47.812;9.274;2023-07-22T10:53:41;22.50;99.90
19755;DHT22;10036;47.812;9.274;2023-07-22T10:56:14;22.60;99.90
19755;DHT22;10036;47.812;9.274;2023-07-22T10:59:01;22.70;99.90
19755;DHT22;10036;47.812;9.274;2023-07-22T11:01:37;22.80;99.90
19755;DHT22;10036;47.812;9.274;2023-07-22T11:04:20;23.10;99.90
19755;DHT22;10036;47.812;9.274;2023-07-22T11:06:55;23.20;99.90
19755;DHT22;10036;47.812;9.274;2023-07-22T11:09:40;23.10;99.90
19755;DHT22;10036;47.812;9.274;2023-07-22T11:12:13;23.20;99.90
19755;DHT22;10036;47.812;9.274;2023-07-22T11:14:46;22.90;99.90
19755;DHT22;10036;47.812;9.274;2023-07-22T11:17:15;22.90;99.90
19755;DHT22;10036;47.812;9.274;2023-07-22T11:19:43;22.90;99.90
19755;DHT22;10036;47.812;9.274;2023-07-22T11:22:10;23.10;99.90
19755;DHT22;10036;47.812;9.274;2023-07-22T11:24:37;23.00;99.90
19755;DHT22;10036;47.812;9.274;2023-07-22T11:27:05;22.90;99.90
19755;DHT22;10036;47.812;9.274;2023-07-22T11:29:33;23.20;99.90
19755;DHT22;10036;47.812;9.274;2023-07-22T11:32:01;23.10;99.90
19755;DHT22;10036;47.812;9.274;2023-07-22T11:34:29;22.90;99.90
19755;DHT22;10036;47.812;9.274;2023-07-22T11:36:57;23.00;99.90
19755;DHT22;10036;47.812;9.274;2023-07-22T11:39:25;23.20;99.90
19755;DHT22;10036;47.812;9.274;2023-07-22T11:41:53;23.30;99.90
19755;DHT22;10036;47.812;9.274;2023-07-22T11:44:22;23.20;99.90
19755;DHT22;10036;47.812;9.274;2023-07-22T11:46:53;23.30;99.90
19755;DHT22;10036;47.812;9.274;2023-07-22T11:49:27;23.50;99.90
19755;DHT22;10036;47.812;9.274;2023-07-22T11:51:58;23.50;99.90
19755;DHT22;10036;47.812;9.274;2023-07-22T11:54:25;23.70;99.90
19755;DHT22;10036;47.812;9.274;2023-07-22T11:56:53;23.70;99.90
19755;DHT22;10036;47.812;9.274;2023-07-22T11:59:34;23.80;99.90
19755;DHT22;10036;47.812;9.274;2023-07-22T12:02:01;23.60;99.90
19755;DHT22;10036;47.812;9.274;2023-07-22T12:04:28;23.70;99.90
19755;DHT22;10036;47.812;9.274;2023-07-22T12:06:56;23.80;99.90
19755;DHT22;10036;47.812;9.274;2023-07-22T12:09:23;23.90;99.90
19755;DHT22;10036;47.812;9.274;2023-07-22T12:11:55;24.00;99.90
19755;DHT22;10036;47.812;9.274;2023-07-22T12:14:23;24.30;99.90
19755;DHT22;10036;47.812;9.274;2023-07-22T12:16:55;24.30;99.90
19755;DHT22;10036;47.812;9.274;2023-07-22T12:19:23;24.20;99.90
19755;DHT22;10036;47.812;9.274;2023-07-22T12:21:49;24.40;99.90
19755;DHT22;10036;47.812;9.274;2023-07-22T12:24:18;24.40;99.90
19755;DHT22;10036;47.812;9.274;2023-07-22T12:26:45;24.50;99.90
19755;DHT22;10036;47.812;9.274;2023-07-22T12:29:12;24.40;99.90
19755;DHT22;10036;47.812;9.274;2023-07-22T12:31:38;24.30;99.90
19755;DHT22;10036;47.812;9.274;2023-07-22T12:34:05;24.30;99.90
19755;DHT22;10036;47.812;9.274;2023-07-22T12:36:32;24.40;99.90
19755;DHT22;10036;47.812;9.274;2023-07-22T12:38:59;24.40;99.90
19755;DHT22;10036;47.812;9.274;2023-07-22T12:41:27;24.50;99.90
19755;DHT22;10036;47.812;9.274;2023-07-22T12:43:54;24.40;99.90
19755;DHT22;10036;47.812;9.274;2023-07-22T12:46:21;24.40;99.90
19755;DHT22;10036;47.812;9.274;2023-07-22T12:48:48;24.50;99.90
19755;DHT22;10036;47.812;9.274;2023-07-22T12:51:15;24.60;99.90
19755;DHT22;10036;47.812;9.274;2023-07-22T12:53:42;24.50;99.90
19755;DHT22;10036;47.812;9.274;2023-07-22T12:56:08;24.50;99.90
19755;DHT22;10036;47.812;9.274;2023-07-22T12:58:37;24.60;99.90
19755;DHT22;10036;47.812;9.274;2023-07-22T13:01:03;24.90;99.90
19755;DHT22;10036;47.812;9.274;2023-07-22T13:03:30;25.10;99.90
19755;DHT22;10036;47.812;9.274;2023-07-22T13:05:57;25.20;99.90
19755;DHT22;10036;47.812;9.274;2023-07-22T13:08:24;25.30;99.90
19755;DHT22;10036;47.812;9.274;2023-07-22T13:10:51;25.50;99.90
19755;DHT22;10036;47.812;9.274;2023-07-22T13:13:17;25.50;99.90
19755;DHT22;10036;47.812;9.274;2023-07-22T13:15:46;25.50;99.90
19755;DHT22;10036;47.812;9.274;2023-07-22T13:18:13;25.60;99.90
19755;DHT22;10036;47.812;9.274;2023-07-22T13:20:42;25.40;99.90
19755;DHT22;10036;47.812;9.274;2023-07-22T13:23:09;25.30;99.90
19755;DHT22;10036;47.812;9.274;2023-07-22T13:25:36;25.50;99.90
19755;DHT22;10036;47.812;9.274;2023-07-22T13:28:03;25.50;99.90
19755;DHT22;10036;47.812;9.274;2023-07-22T13:30:30;25.20;99.90
19755;DHT22;10036;47.812;9.274;2023-07-22T13:32:58;25.40;99.90
19755;DHT22;10036;47.812;9.274;2023-07-22T13:35:25;25.60;99.90
19755;DHT22;10036;47.812;9.274;2023-07-22T13:37:51;25.60;99.90
19755;DHT22;10036;47.812;9.274;2023-07-22T13:40:18;25.60;99.90
19755;DHT22;10036;47.812;9.274;2023-07-22T13:42:45;25.90;99.90
19755;DHT22;10036;47.812;9.274;2023-07-22T13:45:12;25.70;99.90
19755;DHT22;10036;47.812;9.274;2023-07-22T13:47:39;25.80;99.90
19755;DHT22;10036;47.812;9.274;2023-07-22T13:50:08;25.80;99.90
19755;DHT22;10036;47.812;9.274;2023-07-22T13:52:35;25.70;99.90
19755;DHT22;10036;47.812;9.274;2023-07-22T13:55:02;25.70;99.90
19755;DHT22;10036;47.812;9.274;2023-07-22T13:57:29;25.90;99.90
19755;DHT22;10036;47.812;9.274;2023-07-22T13:59:56;26.30;99.90
19755;DHT22;10036;47.812;9.274;2023-07-22T14:02:22;26.30;99.90
19755;DHT22;10036;47.812;9.274;2023-07-22T14:04:49;26.00;99.90
19755;DHT22;10036;47.812;9.274;2023-07-22T14:07:17;26.20;99.90
19755;DHT22;10036;47.812;9.274;2023-07-22T14:09:44;26.10;99.90
19755;DHT22;10036;47.812;9.274;2023-07-22T14:12:11;26.20;99.90
19755;DHT22;10036;47.812;9.274;2023-07-22T14:14:38;26.40;99.90
19755;DHT22;10036;47.812;9.274;2023-07-22T14:17:05;26.40;99.90
19755;DHT22;10036;47.812;9.274;2023-07-22T14:19:33;26.30;99.90
19755;DHT22;10036;47.812;9.274;2023-07-22T14:21:59;26.30;99.90
19755;DHT22;10036;47.812;9.274;2023-07-22T14:24:28;26.30;99.90
19755;DHT22;10036;47.812;9.274;2023-07-22T14:26:54;26.30;99.90
19755;DHT22;10036;47.812;9.274;2023-07-22T14:29:21;26.40;99.90
19755;DHT22;10036;47.812;9.274;2023-07-22T14:31:50;26.70;99.90
19755;DHT22;10036;47.812;9.274;2023-07-22T14:34:18;26.50;99.60
19755;DHT22;10036;47.812;9.274;2023-07-22T14:36:45;25.90;99.90
19755;DHT22;10036;47.812;9.274;2023-07-22T14:39:12;26.10;99.90
19755;DHT22;10036;47.812;9.274;2023-07-22T14:41:41;26.30;99.90
19755;DHT22;10036;47.812;9.274;2023-07-22T14:44:09;26.30;99.90
19755;DHT22;10036;47.812;9.274;2023-07-22T14:46:36;26.00;99.90
19755;DHT22;10036;47.812;9.274;2023-07-22T14:49:04;26.20;99.90
19755;DHT22;10036;47.812;9.274;2023-07-22T14:51:35;26.30;99.80
19755;DHT22;10036;47.812;9.274;2023-07-22T14:54:01;26.40;99.90
19755;DHT22;10036;47.812;9.274;2023-07-22T14:56:28;26.70;98.50
19755;DHT22;10036;47.812;9.274;2023-07-22T14:58:56;26.60;99.80
19755;DHT22;10036;47.812;9.274;2023-07-22T15:01:23;26.80;99.90
19755;DHT22;10036;47.812;9.274;2023-07-22T15:03:50;26.60;99.90
19755;DHT22;10036;47.812;9.274;2023-07-22T15:06:17;26.20;99.10
19755;DHT22;10036;47.812;9.274;2023-07-22T15:08:44;26.10;98.70
19755;DHT22;10036;47.812;9.274;2023-07-22T15:11:11;26.20;99.10
19755;DHT22;10036;47.812;9.274;2023-07-22T15:13:38;25.90;99.30
19755;DHT22;10036;47.812;9.274;2023-07-22T15:16:06;25.50;98.90
19755;DHT22;10036;47.812;9.274;2023-07-22T15:18:33;25.40;99.90
19755;DHT22;10036;47.812;9.274;2023-07-22T15:21:02;25.00;99.90
19755;DHT22;10036;47.812;9.274;2023-07-22T15:23:29;24.80;99.90
19755;DHT22;10036;47.812;9.274;2023-07-22T15:25:56;25.10;99.90
19755;DHT22;10036;47.812;9.274;2023-07-22T15:28:23;25.50;99.90
19755;DHT22;10036;47.812;9.274;2023-07-22T15:30:50;26.00;99.90
19755;DHT22;10036;47.812;9.274;2023-07-22T15:33:18;26.40;99.90